Time;durP1;ratioP1;P1;durP2;ratioP2;P2;SDS_P1;SDS_P2;PMS_P1;PMS_P2;Temp;Humidity;BMP_temperature;BMP_pressure;BME280_temperature;BME280_humidity;BME280_pressure;Samples;Min_cycle;Max_cycle;Signal;HPM_P1;HPM_P2
2021/12/22 00:02:15;;;;;;;161.98;70.05;;;;;;;;;;5074548;28;20059;-70
2021/12/22 00:04:46;;;;;;;141.75;65.90;;;;;;;;;;5074159;28;20553;-70
2021/12/22 00:07:13;;;;;;;150.55;66.47;;;;;;;;;;5074538;28;20025;-69
2021/12/22 00:09:40;;;;;;;173.18;78.75;;;;;;;;;;5074205;28;20017;-69
2021/12/22 00:12:06;;;;;;;196.95;89.80;;;;;;;;;;5074321;28;20048;-68
2021/12/22 00:14:33;;;;;;;285.23;121.10;;;;;;;;;;5074467;28;20103;-67
2021/12/22 00:17:02;;;;;;;307.67;125.78;;;;;;;;;;5072907;28;20031;-69
2021/12/22 00:19:29;;;;;;;255.40;112.35;;;;;;;;;;5073596;28;20560;-68
2021/12/22 00:21:55;;;;;;;250.57;111.60;;;;;;;;;;5074103;28;20021;-69
2021/12/22 00:24:21;;;;;;;228.95;102.40;;;;;;;;;;5074056;28;20033;-70
2021/12/22 00:26:47;;;;;;;233.60;107.40;;;;;;;;;;5073697;28;20473;-68
2021/12/22 00:29:16;;;;;;;258.67;113.45;;;;;;;;;;5073824;28;20036;-70
2021/12/22 00:31:56;;;;;;;262.65;112.32;;;;;;;;;;5073956;28;20035;-69
2021/12/22 00:34:25;;;;;;;246.77;107.18;;;;;;;;;;5073946;28;20028;-69
2021/12/22 00:36:51;;;;;;;242.20;100.47;;;;;;;;;;5073807;28;20033;-71
2021/12/22 00:39:17;;;;;;;233.25;100.60;;;;;;;;;;5072428;28;20165;-69
2021/12/22 00:41:43;;;;;;;189.15;86.05;;;;;;;;;;5073713;28;20029;-70
2021/12/22 00:44:12;;;;;;;164.82;64.70;;;;;;;;;;5073674;28;20464;-71
2021/12/22 00:46:38;;;;;;;109.97;49.03;;;;;;;;;;5073720;28;20033;-69
2021/12/22 00:49:04;;;;;;;104.13;45.65;;;;;;;;;;5073515;28;20039;-68
2021/12/22 00:51:31;;;;;;;93.32;43.28;;;;;;;;;;5073155;28;20071;-70
2021/12/22 00:53:57;;;;;;;82.47;39.70;;;;;;;;;;5073802;28;20113;-68
2021/12/22 00:56:23;;;;;;;78.90;36.03;;;;;;;;;;5073200;28;20107;-70
2021/12/22 00:58:49;;;;;;;90.88;39.45;;;;;;;;;;5073447;28;20079;-65
2021/12/22 01:01:16;;;;;;;121.03;52.03;;;;;;;;;;5071940;28;20032;-66
2021/12/22 01:03:42;;;;;;;120.65;56.38;;;;;;;;;;5073697;28;20115;-64
2021/12/22 01:06:13;;;;;;;120.45;54.70;;;;;;;;;;5072015;28;20028;-64
2021/12/22 01:08:40;;;;;;;113.03;54.40;;;;;;;;;;5073337;28;20124;-66
2021/12/22 01:11:07;;;;;;;109.25;50.20;;;;;;;;;;5071873;28;20465;-69
2021/12/22 01:13:33;;;;;;;109.03;50.25;;;;;;;;;;5073363;28;20031;-68
2021/12/22 01:15:59;;;;;;;93.50;44.95;;;;;;;;;;5073188;28;20036;-67
2021/12/22 01:18:31;;;;;;;90.63;43.38;;;;;;;;;;5073159;28;20028;-66
2021/12/22 01:21:15;;;;;;;96.47;45.17;;;;;;;;;;5073273;28;20032;-67
2021/12/22 01:24:01;;;;;;;92.43;44.75;;;;;;;;;;5073178;28;20055;-67
2021/12/22 01:26:30;;;;;;;91.82;42.85;;;;;;;;;;5073207;28;20461;-66
2021/12/22 01:28:56;;;;;;;119.72;52.67;;;;;;;;;;5071652;28;20123;-66
2021/12/22 01:31:23;;;;;;;112.50;49.72;;;;;;;;;;5071643;28;20024;-66
2021/12/22 01:33:49;;;;;;;88.75;42.33;;;;;;;;;;5072726;28;20392;-66
2021/12/22 01:36:16;;;;;;;84.88;41.60;;;;;;;;;;5072726;28;20099;-68
2021/12/22 01:38:42;;;;;;;86.03;43.35;;;;;;;;;;5072975;28;20491;-67
2021/12/22 01:41:08;;;;;;;87.68;41.78;;;;;;;;;;5072954;28;20173;-70
2021/12/22 01:43:34;;;;;;;82.78;42.00;;;;;;;;;;5072939;28;20115;-69
2021/12/22 01:49:10;;;;;;;93.85;44.42;;;;;;;;;;5072713;28;20046;-67
2021/12/22 01:51:40;;;;;;;88.57;43.92;;;;;;;;;;5072465;28;20524;-68
2021/12/22 01:54:09;;;;;;;99.45;44.85;;;;;;;;;;5071551;28;20166;-67
2021/12/22 01:56:35;;;;;;;88.97;43.58;;;;;;;;;;5071479;28;20021;-68
2021/12/22 01:59:04;;;;;;;86.97;44.00;;;;;;;;;;5072775;28;20024;-67
2021/12/22 02:01:32;;;;;;;102.10;49.30;;;;;;;;;;5072669;28;20175;-67
2021/12/22 02:03:59;;;;;;;100.68;48.05;;;;;;;;;;5071455;28;20025;-67
2021/12/22 02:06:26;;;;;;;102.53;46.40;;;;;;;;;;5073005;28;20489;-65
2021/12/22 02:08:53;;;;;;;100.05;45.83;;;;;;;;;;5072610;28;20036;-65
2021/12/22 02:11:21;;;;;;;108.30;47.35;;;;;;;;;;5072626;28;20025;-66
2021/12/22 02:13:53;;;;;;;97.57;45.63;;;;;;;;;;5071087;28;20037;-66
2021/12/22 02:16:26;;;;;;;91.63;44.17;;;;;;;;;;5071370;28;20029;-66
2021/12/22 02:18:53;;;;;;;88.20;41.97;;;;;;;;;;5072686;28;20033;-65
2021/12/22 02:21:21;;;;;;;80.97;39.40;;;;;;;;;;5072618;28;20025;-66
2021/12/22 02:23:48;;;;;;;74.13;35.88;;;;;;;;;;5071214;28;20614;-65
2021/12/22 02:26:22;;;;;;;72.72;37.10;;;;;;;;;;5071194;28;20063;-67
2021/12/22 02:28:57;;;;;;;65.70;34.80;;;;;;;;;;5071068;28;20132;-67
2021/12/22 02:31:24;;;;;;;69.63;34.83;;;;;;;;;;5072250;28;20366;-68
2021/12/22 02:33:51;;;;;;;83.28;38.30;;;;;;;;;;5070568;28;20119;-67
2021/12/22 02:36:23;;;;;;;82.47;37.03;;;;;;;;;;5070918;28;20141;-67
2021/12/22 02:39:12;;;;;;;78.72;36.05;;;;;;;;;;5072481;28;20082;-66
2021/12/22 02:41:38;;;;;;;75.85;35.15;;;;;;;;;;5071259;28;20659;-70
2021/12/22 02:44:08;;;;;;;76.70;36.83;;;;;;;;;;5074255;28;20508;-69
2021/12/22 02:46:35;;;;;;;72.57;36.47;;;;;;;;;;5073984;28;20170;-69
2021/12/22 02:49:03;;;;;;;69.60;34.70;;;;;;;;;;5075851;28;20090;-69
2021/12/22 02:51:30;;;;;;;76.78;37.13;;;;;;;;;;5075377;28;20083;-70
2021/12/22 02:54:13;;;;;;;74.60;35.80;;;;;;;;;;5074632;28;20066;-69
2021/12/22 03:04:11;;;;;;;81.78;36.70;;;;;;;;;;5077889;28;20111;-68
2021/12/22 03:06:51;;;;;;;83.18;37.72;;;;;;;;;;5084918;28;20024;-67
2021/12/22 03:09:25;;;;;;;83.10;36.53;;;;;;;;;;5074143;28;20040;-67
2021/12/22 03:11:53;;;;;;;71.95;35.80;;;;;;;;;;5075548;28;20024;-66
2021/12/22 03:14:20;;;;;;;73.88;35.22;;;;;;;;;;5075532;28;20021;-68
2021/12/22 03:16:47;;;;;;;68.82;33.72;;;;;;;;;;5074146;28;20812;-65
2021/12/22 03:19:19;;;;;;;65.15;33.03;;;;;;;;;;5075417;28;20029;-67
2021/12/22 03:21:46;;;;;;;64.43;31.95;;;;;;;;;;5092287;28;20024;-65
2021/12/22 03:24:13;;;;;;;65.25;32.13;;;;;;;;;;5095253;28;20050;-68
2021/12/22 03:26:44;;;;;;;62.35;31.42;;;;;;;;;;5095615;28;20031;-64
2021/12/22 03:29:11;;;;;;;51.60;28.93;;;;;;;;;;5094163;28;20126;-68
2021/12/22 03:31:37;;;;;;;59.92;29.15;;;;;;;;;;5095667;28;20043;-66
2021/12/22 03:34:03;;;;;;;48.38;27.63;;;;;;;;;;5095375;28;20028;-69
2021/12/22 03:36:30;;;;;;;51.45;27.25;;;;;;;;;;5095255;28;20021;-67
2021/12/22 03:38:56;;;;;;;51.78;28.27;;;;;;;;;;5095244;28;20024;-69
2021/12/22 03:41:22;;;;;;;53.03;28.02;;;;;;;;;;5093877;28;20406;-69
2021/12/22 03:43:49;;;;;;;56.85;30.05;;;;;;;;;;5095202;28;20150;-69
2021/12/22 03:46:15;;;;;;;61.33;29.88;;;;;;;;;;5095092;28;20027;-67
2021/12/22 03:48:42;;;;;;;59.70;30.33;;;;;;;;;;5095001;28;20042;-68
2021/12/22 03:51:09;;;;;;;60.42;32.67;;;;;;;;;;5094610;28;20123;-69
2021/12/22 03:53:35;;;;;;;64.10;32.97;;;;;;;;;;5092466;28;20028;-69
2021/12/22 03:56:02;;;;;;;71.05;35.72;;;;;;;;;;5094639;28;20027;-69
2021/12/22 03:58:28;;;;;;;74.78;37.13;;;;;;;;;;5095087;28;20445;-69
2021/12/22 04:00:56;;;;;;;73.50;38.05;;;;;;;;;;5093475;28;20030;-67
2021/12/22 04:03:26;;;;;;;91.68;45.03;;;;;;;;;;5094803;28;20433;-68
2021/12/22 04:05:52;;;;;;;87.20;44.55;;;;;;;;;;5094736;28;20481;-68
2021/12/22 04:08:18;;;;;;;84.53;42.33;;;;;;;;;;5092912;28;20040;-68
2021/12/22 04:10:48;;;;;;;77.18;40.03;;;;;;;;;;5094241;28;20107;-67
2021/12/22 04:13:15;;;;;;;79.53;39.85;;;;;;;;;;5093127;28;20107;-66
2021/12/22 04:15:42;;;;;;;88.68;42.45;;;;;;;;;;5094530;28;20028;-66
2021/12/22 04:18:08;;;;;;;86.53;42.88;;;;;;;;;;5094478;28;20022;-66
2021/12/22 04:20:35;;;;;;;88.78;42.35;;;;;;;;;;5094402;28;20099;-67
2021/12/22 04:23:02;;;;;;;127.75;53.38;;;;;;;;;;5094163;28;20062;-69
2021/12/22 04:25:28;;;;;;;110.35;50.72;;;;;;;;;;5094104;28;20430;-69
2021/12/22 04:27:56;;;;;;;105.82;51.63;;;;;;;;;;5094206;28;20030;-67
2021/12/22 04:30:23;;;;;;;116.00;49.70;;;;;;;;;;5094302;28;20032;-68
2021/12/22 04:32:50;;;;;;;92.57;45.60;;;;;;;;;;5094464;28;20048;-67
2021/12/22 04:35:16;;;;;;;100.85;46.13;;;;;;;;;;5092928;28;20114;-66
2021/12/22 04:37:42;;;;;;;104.18;47.67;;;;;;;;;;5092770;28;20034;-65
2021/12/22 04:40:09;;;;;;;102.07;46.42;;;;;;;;;;5094094;28;20068;-63
2021/12/22 04:42:35;;;;;;;98.05;46.75;;;;;;;;;;5093444;28;20033;-68
2021/12/22 04:45:05;;;;;;;103.60;46.08;;;;;;;;;;5091362;28;20118;-67
2021/12/22 04:47:33;;;;;;;93.82;44.83;;;;;;;;;;5093512;28;20036;-66
2021/12/22 04:50:00;;;;;;;110.47;50.45;;;;;;;;;;5093070;28;20482;-67
2021/12/22 04:52:32;;;;;;;110.80;53.28;;;;;;;;;;5093442;28;20369;-66
2021/12/22 04:55:04;;;;;;;101.13;49.13;;;;;;;;;;5093405;28;20030;-66
2021/12/22 04:57:32;;;;;;;127.88;52.10;;;;;;;;;;5093449;28;20032;-67
2021/12/22 04:59:58;;;;;;;90.45;45.03;;;;;;;;;;5092411;28;20085;-67
2021/12/22 05:02:24;;;;;;;190.95;66.80;;;;;;;;;;5092343;28;20060;-69
2021/12/22 05:04:51;;;;;;;102.25;48.42;;;;;;;;;;5091452;28;20028;-67
2021/12/22 05:07:17;;;;;;;117.43;50.22;;;;;;;;;;5092384;28;20035;-68
2021/12/22 05:09:43;;;;;;;140.85;55.72;;;;;;;;;;5092154;28;20111;-67
2021/12/22 05:12:09;;;;;;;101.07;49.13;;;;;;;;;;5090967;28;20047;-68
2021/12/22 05:14:36;;;;;;;168.68;61.22;;;;;;;;;;5092320;28;20031;-68
2021/12/22 05:17:05;;;;;;;134.10;56.40;;;;;;;;;;5092437;28;20054;-68
2021/12/22 05:19:31;;;;;;;110.70;50.28;;;;;;;;;;5092194;28;20020;-68
2021/12/22 05:21:58;;;;;;;114.65;52.53;;;;;;;;;;5092718;28;20028;-67
2021/12/22 05:24:24;;;;;;;121.72;56.78;;;;;;;;;;5093308;28;20020;-69
2021/12/22 05:26:50;;;;;;;128.38;57.75;;;;;;;;;;5091677;28;20031;-68
2021/12/22 05:29:17;;;;;;;111.20;54.53;;;;;;;;;;5091908;28;20468;-68
2021/12/22 05:31:43;;;;;;;122.07;53.70;;;;;;;;;;5093219;28;20451;-68
2021/12/22 05:34:10;;;;;;;123.30;54.83;;;;;;;;;;5093257;28;20468;-68
2021/12/22 05:36:39;;;;;;;113.97;54.20;;;;;;;;;;5093188;28;20026;-69
2021/12/22 05:39:05;;;;;;;144.40;57.72;;;;;;;;;;5093193;28;20020;-69
2021/12/22 05:41:31;;;;;;;324.30;104.32;;;;;;;;;;5093144;28;20107;-68
2021/12/22 05:43:57;;;;;;;311.67;102.53;;;;;;;;;;5093117;28;20399;-68
2021/12/22 05:46:24;;;;;;;324.70;106.90;;;;;;;;;;5091811;28;20027;-69
2021/12/22 05:48:50;;;;;;;268.52;94.85;;;;;;;;;;5091667;28;20024;-68
2021/12/22 05:51:16;;;;;;;229.13;87.18;;;;;;;;;;5093037;28;20052;-65
2021/12/22 05:53:43;;;;;;;267.63;96.97;;;;;;;;;;5093001;28;20028;-67
2021/12/22 05:56:09;;;;;;;251.98;92.32;;;;;;;;;;5092633;28;20392;-66
2021/12/22 05:58:35;;;;;;;179.43;76.88;;;;;;;;;;5092943;28;20032;-66
2021/12/22 06:01:01;;;;;;;171.68;73.75;;;;;;;;;;5090584;28;20028;-66
2021/12/22 06:03:28;;;;;;;159.52;67.20;;;;;;;;;;5092063;28;20020;-65
2021/12/22 06:05:54;;;;;;;121.70;57.35;;;;;;;;;;5092787;28;20028;-65
2021/12/22 06:08:20;;;;;;;107.30;52.83;;;;;;;;;;5092563;28;20036;-65
2021/12/22 06:10:46;;;;;;;116.75;57.83;;;;;;;;;;5092647;28;20056;-66
2021/12/22 06:13:13;;;;;;;116.15;59.00;;;;;;;;;;5092589;28;20028;-66
2021/12/22 06:15:40;;;;;;;113.20;56.22;;;;;;;;;;5091091;28;20119;-65
2021/12/22 06:18:06;;;;;;;112.72;59.20;;;;;;;;;;5094390;28;20024;-65
2021/12/22 06:20:33;;;;;;;121.85;57.70;;;;;;;;;;5095110;28;20112;-65
2021/12/22 06:22:59;;;;;;;119.90;58.85;;;;;;;;;;5096347;28;20028;-65
2021/12/22 06:25:26;;;;;;;116.05;59.53;;;;;;;;;;5096734;28;20061;-65
2021/12/22 06:27:52;;;;;;;113.20;58.22;;;;;;;;;;5095111;28;20478;-65
2021/12/22 06:30:20;;;;;;;123.38;61.78;;;;;;;;;;5096273;28;20067;-64
2021/12/22 06:32:50;;;;;;;116.18;57.58;;;;;;;;;;5096275;28;20034;-63
2021/12/22 06:35:16;;;;;;;110.32;55.15;;;;;;;;;;5094762;28;20074;-64
2021/12/22 06:37:43;;;;;;;105.55;53.78;;;;;;;;;;5095972;28;20123;-64
2021/12/22 06:40:10;;;;;;;117.28;55.10;;;;;;;;;;5095977;28;20144;-64
2021/12/22 06:42:37;;;;;;;125.55;62.92;;;;;;;;;;5094481;28;20028;-64
2021/12/22 06:45:04;;;;;;;200.85;83.50;;;;;;;;;;5096407;28;20110;-64
2021/12/22 06:47:30;;;;;;;174.02;80.68;;;;;;;;;;5096077;28;20028;-64
2021/12/22 06:49:56;;;;;;;180.05;84.88;;;;;;;;;;5095355;28;20097;-64
2021/12/22 06:52:23;;;;;;;193.13;88.93;;;;;;;;;;5095686;28;20108;-63
2021/12/22 06:54:49;;;;;;;205.00;96.28;;;;;;;;;;5094527;28;20028;-64
2021/12/22 06:57:19;;;;;;;171.40;82.05;;;;;;;;;;5095819;28;20024;-64
2021/12/22 06:59:45;;;;;;;184.80;87.68;;;;;;;;;;5095728;28;20031;-64
2021/12/22 07:02:12;;;;;;;164.60;78.13;;;;;;;;;;5095484;28;20016;-64
2021/12/22 07:04:38;;;;;;;145.43;70.38;;;;;;;;;;5094147;28;20028;-64
2021/12/22 07:07:04;;;;;;;146.20;67.93;;;;;;;;;;5095231;28;20028;-63
2021/12/22 07:09:30;;;;;;;144.38;67.55;;;;;;;;;;5095486;28;20122;-67
2021/12/22 07:11:56;;;;;;;236.45;105.57;;;;;;;;;;5095551;28;20103;-66
2021/12/22 07:14:23;;;;;;;226.82;104.82;;;;;;;;;;5094076;28;20027;-66
2021/12/22 07:16:49;;;;;;;237.00;111.63;;;;;;;;;;5095155;28;20441;-65
2021/12/22 07:19:15;;;;;;;249.27;115.07;;;;;;;;;;5095667;28;20028;-65
2021/12/22 07:21:41;;;;;;;283.38;121.70;;;;;;;;;;5093433;28;20111;-65
2021/12/22 07:24:08;;;;;;;284.55;121.60;;;;;;;;;;5095201;28;20028;-66
2021/12/22 07:26:34;;;;;;;255.45;112.25;;;;;;;;;;5093997;28;20025;-65
2021/12/22 07:29:00;;;;;;;252.43;109.15;;;;;;;;;;5094827;28;20153;-65
2021/12/22 07:31:26;;;;;;;229.65;101.25;;;;;;;;;;5095105;28;20115;-67
2021/12/22 07:34:01;;;;;;;233.73;100.13;;;;;;;;;;5095059;28;20480;-65
2021/12/22 07:36:27;;;;;;;181.70;85.72;;;;;;;;;;5093657;28;20475;-66
2021/12/22 07:39:00;;;;;;;169.13;80.00;;;;;;;;;;5095000;28;20115;-66
2021/12/22 07:41:27;;;;;;;166.10;78.32;;;;;;;;;;5093288;28;20114;-65
2021/12/22 07:43:53;;;;;;;162.93;77.55;;;;;;;;;;5094958;28;20031;-63
2021/12/22 07:46:24;;;;;;;161.82;78.18;;;;;;;;;;5093474;28;20107;-65
2021/12/22 07:48:50;;;;;;;159.07;75.88;;;;;;;;;;5093575;28;20114;-65
2021/12/22 07:51:17;;;;;;;154.95;76.13;;;;;;;;;;5073601;28;20049;-66
2021/12/22 07:53:43;;;;;;;155.73;78.25;;;;;;;;;;5074447;28;20036;-66
2021/12/22 07:56:09;;;;;;;155.15;73.82;;;;;;;;;;5074653;28;20151;-67
2021/12/22 07:58:35;;;;;;;142.45;75.22;;;;;;;;;;5074578;28;20024;-66
2021/12/22 08:01:01;;;;;;;146.15;71.50;;;;;;;;;;5074494;28;20051;-65
2021/12/22 08:03:28;;;;;;;155.45;74.55;;;;;;;;;;5074453;28;20039;-65
2021/12/22 08:05:54;;;;;;;144.23;68.15;;;;;;;;;;5056428;28;20060;-65
2021/12/22 08:08:20;;;;;;;135.02;67.80;;;;;;;;;;5074191;28;20465;-67
2021/12/22 08:10:47;;;;;;;149.55;74.78;;;;;;;;;;5074326;28;20020;-67
2021/12/22 08:13:15;;;;;;;219.68;96.88;;;;;;;;;;5074303;28;20028;-67
2021/12/22 08:15:41;;;;;;;216.07;94.93;;;;;;;;;;5056354;28;20467;-69
2021/12/22 08:18:08;;;;;;;245.10;102.32;;;;;;;;;;5074356;28;20086;-68
2021/12/22 08:20:34;;;;;;;234.75;111.05;;;;;;;;;;5056190;28;20032;-69
2021/12/22 08:23:00;;;;;;;250.52;125.38;;;;;;;;;;5056069;28;20154;-67
2021/12/22 08:25:27;;;;;;;362.60;174.48;;;;;;;;;;5073941;28;20029;-68
2021/12/22 08:27:53;;;;;;;185.90;96.50;;;;;;;;;;5073827;28;20424;-68
2021/12/22 08:30:19;;;;;;;175.95;86.90;;;;;;;;;;5073849;28;20032;-69
2021/12/22 08:32:46;;;;;;;159.10;81.45;;;;;;;;;;5073871;28;20028;-67
2021/12/22 08:35:15;;;;;;;176.63;90.65;;;;;;;;;;5073259;28;20373;-68
2021/12/22 08:40:26;;;;;;;190.38;98.05;;;;;;;;;;5072603;28;20071;-72
2021/12/22 08:42:53;;;;;;;223.25;120.32;;;;;;;;;;5055548;28;20381;-67
2021/12/22 08:45:19;;;;;;;183.95;95.15;;;;;;;;;;5073478;28;20025;-68
2021/12/22 08:47:46;;;;;;;217.95;111.55;;;;;;;;;;5073381;28;20029;-68
2021/12/22 08:50:13;;;;;;;209.73;105.97;;;;;;;;;;5073208;28;20053;-69
2021/12/22 08:52:39;;;;;;;234.38;115.85;;;;;;;;;;5073107;28;20020;-69
2021/12/22 08:55:06;;;;;;;267.63;126.68;;;;;;;;;;5055482;28;20115;-68
2021/12/22 08:57:34;;;;;;;173.20;92.30;;;;;;;;;;5055480;28;20028;-68
2021/12/22 09:00:01;;;;;;;200.57;99.15;;;;;;;;;;5073336;28;20032;-68
2021/12/22 09:02:27;;;;;;;207.70;107.32;;;;;;;;;;5073399;28;20035;-66
2021/12/22 09:04:53;;;;;;;217.80;112.53;;;;;;;;;;5055581;28;20037;-67
2021/12/22 09:07:19;;;;;;;213.70;110.57;;;;;;;;;;5055197;28;20116;-67
2021/12/22 09:09:45;;;;;;;205.88;108.60;;;;;;;;;;5073074;28;20115;-67
2021/12/22 09:12:12;;;;;;;199.88;104.05;;;;;;;;;;5055153;28;20024;-68
2021/12/22 09:14:38;;;;;;;214.73;104.45;;;;;;;;;;5073078;28;20028;-67
2021/12/22 09:17:04;;;;;;;198.40;101.05;;;;;;;;;;5073079;28;20025;-73
2021/12/22 09:19:30;;;;;;;207.10;104.88;;;;;;;;;;5072900;28;20033;-67
2021/12/22 09:21:56;;;;;;;226.68;116.22;;;;;;;;;;5073015;28;20016;-66
2021/12/22 09:24:23;;;;;;;179.77;97.63;;;;;;;;;;5073013;28;20067;-68
2021/12/22 09:26:49;;;;;;;209.18;106.75;;;;;;;;;;5071143;28;20028;-66
2021/12/22 09:29:15;;;;;;;183.93;98.20;;;;;;;;;;5072301;28;20056;-66
2021/12/22 09:31:41;;;;;;;213.13;107.82;;;;;;;;;;5054891;28;20032;-68
2021/12/22 09:34:08;;;;;;;189.25;97.07;;;;;;;;;;5071633;28;20074;-67
2021/12/22 09:36:34;;;;;;;225.32;114.43;;;;;;;;;;5072796;28;20108;-65
2021/12/22 09:39:01;;;;;;;192.25;100.97;;;;;;;;;;5073071;28;20059;-64
2021/12/22 09:41:27;;;;;;;226.07;117.05;;;;;;;;;;5072427;28;20046;-64
2021/12/22 09:43:55;;;;;;;220.88;118.20;;;;;;;;;;5072845;28;20035;-64
2021/12/22 09:46:23;;;;;;;228.95;118.22;;;;;;;;;;5072838;28;20082;-64
2021/12/22 09:48:58;;;;;;;219.15;111.90;;;;;;;;;;5054610;28;20043;-65
2021/12/22 09:53:51;;;;;;;212.55;110.95;;;;;;;;;;5037171;28;20505;-65
2021/12/22 09:56:22;;;;;;;208.38;107.30;;;;;;;;;;5036988;28;20091;-64
2021/12/22 09:58:50;;;;;;;169.27;90.83;;;;;;;;;;5036932;28;20403;-64
2021/12/22 10:01:22;;;;;;;152.40;79.82;;;;;;;;;;5033106;28;20285;-64
2021/12/22 10:03:49;;;;;;;146.70;78.20;;;;;;;;;;5036110;28;20104;-64
2021/12/22 10:06:15;;;;;;;159.05;83.00;;;;;;;;;;5036747;28;20032;-64
2021/12/22 10:08:50;;;;;;;162.68;85.82;;;;;;;;;;5036599;28;20133;-65
2021/12/22 10:11:16;;;;;;;133.77;71.03;;;;;;;;;;5036658;28;20025;-64
2021/12/22 10:13:44;;;;;;;107.63;57.03;;;;;;;;;;5036832;28;20105;-64
2021/12/22 10:16:16;;;;;;;93.18;51.88;;;;;;;;;;5036523;28;20032;-65
2021/12/22 10:18:42;;;;;;;102.30;54.28;;;;;;;;;;5035362;28;20040;-65
2021/12/22 10:21:13;;;;;;;137.73;73.57;;;;;;;;;;5036485;28;20056;-64
2021/12/22 10:23:41;;;;;;;144.32;74.18;;;;;;;;;;5036543;28;20032;-64
2021/12/22 10:26:08;;;;;;;116.72;61.15;;;;;;;;;;5035167;28;20438;-64
2021/12/22 10:28:50;;;;;;;114.45;59.15;;;;;;;;;;5035991;28;20052;-65
2021/12/22 10:31:18;;;;;;;99.50;49.75;;;;;;;;;;5036223;28;20032;-65
2021/12/22 10:33:44;;;;;;;119.32;61.83;;;;;;;;;;5036178;28;20029;-64
2021/12/22 10:36:12;;;;;;;140.32;56.42;;;;;;;;;;5034861;28;20064;-65
2021/12/22 10:38:38;;;;;;;130.77;58.65;;;;;;;;;;5036174;28;20041;-64
2021/12/22 10:41:06;;;;;;;118.80;64.72;;;;;;;;;;5036170;28;20025;-65
2021/12/22 10:43:34;;;;;;;114.10;58.45;;;;;;;;;;5034692;28;20034;-64
2021/12/22 10:46:02;;;;;;;100.20;53.97;;;;;;;;;;5033061;28;20029;-65
2021/12/22 10:51:20;;;;;;;76.38;41.80;;;;;;;;;;5071240;28;20069;-64
2021/12/22 10:53:46;;;;;;;;;;;;;;;;;;5076125;28;20020;-64
2021/12/22 10:56:27;;;;;;;78.75;39.10;;;;;;;;;;5075455;28;20344;-64
2021/12/22 10:59:00;;;;;;;71.45;31.25;;;;;;;;;;5075492;28;20089;-64
2021/12/22 11:01:27;;;;;;;76.30;37.60;;;;;;;;;;5072771;28;20480;-65
2021/12/22 11:04:01;;;;;;;74.50;37.95;;;;;;;;;;5073211;28;20016;-66
2021/12/22 11:06:30;;;;;;;80.95;40.05;;;;;;;;;;5074639;28;20024;-64
2021/12/22 11:09:04;;;;;;;74.07;37.95;;;;;;;;;;5075191;28;20488;-69
2021/12/22 11:11:32;;;;;;;69.97;36.42;;;;;;;;;;5075252;28;20017;-67
2021/12/22 11:14:05;;;;;;;56.47;33.00;;;;;;;;;;5075190;28;20035;-66
2021/12/22 11:16:32;;;;;;;64.95;34.63;;;;;;;;;;5075238;28;20017;-65
2021/12/22 11:19:10;;;;;;;49.70;28.08;;;;;;;;;;5075346;28;20025;-67
2021/12/22 11:21:52;;;;;;;58.35;31.25;;;;;;;;;;5057236;28;20374;-66
2021/12/22 11:24:19;;;;;;;40.35;23.17;;;;;;;;;;5074975;28;20025;-67
2021/12/22 11:26:45;;;;;;;45.75;24.15;;;;;;;;;;5074649;28;20020;-66
2021/12/22 11:29:12;;;;;;;43.00;25.70;;;;;;;;;;5075154;28;20071;-66
2021/12/22 11:31:39;;;;;;;49.00;26.13;;;;;;;;;;5075105;28;20024;-66
2021/12/22 11:34:06;;;;;;;49.60;25.70;;;;;;;;;;5074960;28;20495;-66
2021/12/22 11:36:32;;;;;;;36.28;18.95;;;;;;;;;;5074966;28;20055;-66
2021/12/22 11:38:58;;;;;;;32.20;15.32;;;;;;;;;;5075227;28;20036;-67
2021/12/22 11:41:27;;;;;;;30.65;17.27;;;;;;;;;;5075040;28;20116;-66
2021/12/22 11:43:54;;;;;;;147.23;75.35;;;;;;;;;;5074807;28;20024;-67
2021/12/22 11:46:21;;;;;;;41.13;21.00;;;;;;;;;;5056767;28;20504;-66
2021/12/22 11:48:48;;;;;;;53.28;23.35;;;;;;;;;;5074716;28;20036;-66
2021/12/22 11:51:35;;;;;;;46.35;22.83;;;;;;;;;;5074838;28;20045;-66
2021/12/22 11:54:07;;;;;;;29.48;16.38;;;;;;;;;;5074738;28;20033;-66
2021/12/22 11:56:36;;;;;;;24.80;13.77;;;;;;;;;;5074706;28;20066;-66
2021/12/22 11:59:03;;;;;;;34.17;14.35;;;;;;;;;;5074745;28;20527;-66
2021/12/22 12:01:29;;;;;;;25.52;13.32;;;;;;;;;;5074513;28;20469;-66
2021/12/22 12:04:15;;;;;;;24.23;12.52;;;;;;;;;;5074519;28;20044;-66
2021/12/22 12:06:49;;;;;;;16.23;10.57;;;;;;;;;;5074425;28;20025;-68
2021/12/22 12:09:15;;;;;;;17.75;10.02;;;;;;;;;;5074269;28;20457;-66
2021/12/22 12:11:53;;;;;;;37.42;17.75;;;;;;;;;;5056431;28;20120;-66
2021/12/22 12:14:38;;;;;;;30.67;17.75;;;;;;;;;;5055283;28;20025;-66
2021/12/22 12:23:18;;;;;;;25.88;12.60;;;;;;;;;;5073908;28;20082;-66
2021/12/22 12:25:44;;;;;;;21.38;11.65;;;;;;;;;;5074087;28;20040;-66
2021/12/22 12:28:20;;;;;;;16.30;9.60;;;;;;;;;;5055994;28;20178;-67
2021/12/22 12:30:51;;;;;;;12.75;6.57;;;;;;;;;;5073899;28;20037;-66
2021/12/22 12:33:24;;;;;;;12.85;8.23;;;;;;;;;;5073846;28;20029;-66
2021/12/22 12:35:58;;;;;;;19.05;11.45;;;;;;;;;;5073916;28;20119;-66
2021/12/22 12:38:44;;;;;;;19.75;9.80;;;;;;;;;;5073814;28;20111;-66
2021/12/22 12:41:18;;;;;;;24.70;11.55;;;;;;;;;;5073648;28;20025;-65
2021/12/22 12:43:46;;;;;;;16.30;9.27;;;;;;;;;;5073690;28;20503;-67
2021/12/22 12:46:23;;;;;;;19.42;10.00;;;;;;;;;;5073646;28;20025;-66
2021/12/22 12:49:08;;;;;;;19.77;12.15;;;;;;;;;;5073574;28;20489;-67
2021/12/22 12:51:35;;;;;;;23.48;13.98;;;;;;;;;;5055608;28;20036;-66
2021/12/22 12:54:09;;;;;;;19.50;9.77;;;;;;;;;;5055547;28;20024;-66
2021/12/22 12:56:36;;;;;;;26.45;14.35;;;;;;;;;;5073713;28;20056;-67
2021/12/22 12:59:04;;;;;;;22.25;10.43;;;;;;;;;;5073473;28;20051;-66
2021/12/22 13:01:46;;;;;;;25.35;12.10;;;;;;;;;;5073373;28;20025;-66
2021/12/22 13:04:24;;;;;;;28.77;12.77;;;;;;;;;;5073376;28;20024;-67
2021/12/22 13:07:03;;;;;;;32.22;15.73;;;;;;;;;;5073264;28;20475;-66
2021/12/22 13:09:30;;;;;;;27.30;16.95;;;;;;;;;;5055315;28;20369;-67
2021/12/22 13:17:41;;;;;;;20.88;12.40;;;;;;;;;;5070332;28;20079;-66
2021/12/22 13:20:08;;;;;;;25.13;13.18;;;;;;;;;;5072586;28;20020;-66
2021/12/22 13:22:36;;;;;;;26.65;11.70;;;;;;;;;;5073185;28;20032;-65
2021/12/22 13:25:05;;;;;;;26.48;12.15;;;;;;;;;;5073061;28;20103;-66
2021/12/22 13:27:31;;;;;;;22.02;12.73;;;;;;;;;;5055085;28;20024;-66
2021/12/22 13:30:08;;;;;;;27.15;14.02;;;;;;;;;;5068592;28;20500;-65
2021/12/22 13:32:35;;;;;;;28.08;13.95;;;;;;;;;;5072270;28;20028;-65
2021/12/22 13:35:01;;;;;;;26.00;13.32;;;;;;;;;;5072513;28;20104;-65
2021/12/22 13:37:30;;;;;;;23.85;14.30;;;;;;;;;;5072914;28;20462;-72
2021/12/22 13:39:56;;;;;;;27.75;16.13;;;;;;;;;;5072911;28;20043;-66
2021/12/22 13:42:22;;;;;;;24.50;13.38;;;;;;;;;;5073112;28;20146;-65
2021/12/22 13:44:48;;;;;;;25.85;14.55;;;;;;;;;;5072502;28;20039;-65
2021/12/22 13:47:15;;;;;;;29.92;15.13;;;;;;;;;;5054413;28;20021;-65
2021/12/22 13:49:41;;;;;;;27.83;15.27;;;;;;;;;;5072387;28;20056;-65
2021/12/22 13:52:09;;;;;;;27.58;15.98;;;;;;;;;;5072415;28;20109;-65
2021/12/22 13:54:35;;;;;;;35.95;14.60;;;;;;;;;;5054271;28;20033;-65
2021/12/22 13:57:03;;;;;;;24.40;12.85;;;;;;;;;;5072546;28;20024;-64
2021/12/22 13:59:31;;;;;;;23.95;12.73;;;;;;;;;;5072585;28;20032;-64
2021/12/22 14:01:58;;;;;;;26.67;13.82;;;;;;;;;;5072617;28;20025;-64
2021/12/22 14:04:50;;;;;;;22.88;13.98;;;;;;;;;;5072415;28;20090;-63
2021/12/22 14:07:21;;;;;;;24.70;13.70;;;;;;;;;;5068826;28;20484;-65
2021/12/22 14:09:52;;;;;;;30.10;16.88;;;;;;;;;;5054441;28;20036;-65
2021/12/22 14:12:29;;;;;;;31.70;16.13;;;;;;;;;;5054411;28;20545;-66
2021/12/22 14:14:57;;;;;;;20.25;11.65;;;;;;;;;;5072499;28;20088;-65
2021/12/22 14:17:32;;;;;;;22.15;11.00;;;;;;;;;;5054317;28;20330;-67
2021/12/22 14:20:19;;;;;;;28.92;14.05;;;;;;;;;;5071651;28;20396;-66
2021/12/22 14:22:47;;;;;;;31.58;13.73;;;;;;;;;;5072246;28;20100;-66
2021/12/22 14:25:16;;;;;;;26.75;14.30;;;;;;;;;;5072055;28;20111;-65
2021/12/22 14:27:48;;;;;;;26.40;15.45;;;;;;;;;;5054349;28;20060;-70
2021/12/22 14:30:14;;;;;;;28.77;14.95;;;;;;;;;;5054231;28;20419;-67
2021/12/22 14:32:40;;;;;;;24.00;13.73;;;;;;;;;;5054138;28;20028;-66
2021/12/22 14:35:09;;;;;;;23.42;13.32;;;;;;;;;;5053945;28;20119;-65
2021/12/22 14:37:45;;;;;;;33.22;18.90;;;;;;;;;;5054851;28;20370;-65
2021/12/22 14:40:15;;;;;;;36.17;19.27;;;;;;;;;;5076030;28;20028;-66
2021/12/22 14:42:42;;;;;;;32.60;15.70;;;;;;;;;;5057769;28;20028;-66
2021/12/22 14:45:21;;;;;;;29.23;14.43;;;;;;;;;;5075310;28;20055;-67
2021/12/22 14:48:01;;;;;;;25.50;14.63;;;;;;;;;;5075136;28;20099;-65